Polokwane International Airport

Airport
ICAO code: 
FAPP
Summary
ICAO Region: 
AFI
Territory: 
Location: 
, Limpopo
Serving: 
Potgietersrus
Elevation: 
4076 ft
Coordinates: 
Aerial View: 
23° 50' 43.102" S, 29° 27' 31" E
Metar
Observation
FAPP 291800Z 09005KT 9999 FEW025 SCT080 22/14 Q1018 NOSIG
Station
POLOKWANE INTL
Date/Time
2021-11-29 18:00:00
Wind direction
90°
Wind speed
05 kts
Lowest cloud amount
few clouds
Temperature
22°C
Dew point
14°C
Humidity
60%
QNH
1018 hPa
Weather condition
n/a

Runways

Designator Length Width Surface Rops
5/23 2320 45 ASP No/No
1/19 2560 45 ASP No/No
Airport map: 
Aerial View: 

SKYbrary Partners:

Safety knowledge contributed by: